Etusivu
METAR-TAF:

METAR-TAF

Lentoasemat :

Puerto Suárez, Bolivia

Leveyspiiri: 18-59S, Pituuspiiri: 057-49W, korkeus merenpinnasta: 134 m

Tämänhetkinen sää

Tämä raportti tehtiin 50 minuuttia sitten, kello 13.00 UTC
Tuuli 4 kn idästä
Lämpötila 26°C
Kosteus 79%
Ilmanpaine 1013 hPa
Näkyvyys: 3000 m
savua

METAR: SLPS 291300Z 09004KT 3000 FU NSC 26/22 Q1013

Aika: 09:50 (13:50 UTC)


TAF: puuttuu

Säähavainnot ja -ennusteet yli 4000 lentoasemalta (METAR- ja TAF-raportit).

Käytössä olevat sääasemat on merkitty karttaan keltaisilla ja punaisilla pisteillä.

Aseta hiiri pisteen päälle nähdäksesi sääaseman nimen.

Klikkaa sitten nähdäksesi säähavainnot ja -ennusteet.

Kartan vaihtaminen: klikkaa mustalla rastilla varustettuja vihreitä pisteitä, niin voit zoomata sisään; viivalla varustettua vihreää pistettä, niin voit zoomata ulos tai vihreitä nuolia, niin pääset viereisille kartoille.


METAR-TAF: